Kezdőlap
METAR-TAF:

METAR-TAF

Repülőterek :

Flying Cloud Airport

Minneapolis-Eden Prairie, Minnesota, Amerikai Egyesült Államok

földrajzi szélesség: 44-49-56N, földrajzi hosszúság: 093-28-13W, magasság: 287 m

Jelenlegi meteorológiai megfigyelések

A jelentés 16 perccel ezelõtt készült, 06:53 UTC
Keleti szél 7 kt
Hőmérséklet 19°C
Páratartalom 88%
Légköri nyomás 1008 hPa
Látótávolság: 16.1 km
Szakadozott felhőzet 1900 lábon
Szakadozott felhőzet 2600 lábon

METAR: KFCM 210653Z AUTO 08007KT 10SM BKN019 BKN026 19/17 A2976 RMK AO2 LTG DSNT NW-E RAE22B38E47 TSE0558 SLP074 P0002 T01940172

Idő: 02:09 (07:09 UTC)


TAF: hiányzik

Meteorológiai megfigyelések és előrejelzések több, mint 4000 repülőtéren (METAR és TAF jelentéseket).

A térképen piros és sárga pontok jelzik az elérhető meteorológiai állomásokat.

Mozgassa az egeret a pont fölött, hogy megjelenjen az állomás neve.

Azután kattintson az időjárási megfigyelések és előrejelzések megtekintéséhez.

A térkép megváltoztatása: kattintson a fekete keresztel jelölt zöld gombra ráközelítéshez, a vonallal jelölt zöld gombra távolításhoz, vagy a zöld nyilakra a szomszédos térképek eléréséhez.


METAR-TAF: